sensor_id;sensor_type;location;lat;lon;timestamp;P1;durP1;ratioP1;P2;durP2;ratioP2
8247;SDS011;4164;49.844;8.830;2023-05-10T00:01:05;0.90;;;0.90;;
8247;SDS011;4164;49.844;8.830;2023-05-10T00:03:31;1.13;;;1.03;;
8247;SDS011;4164;49.844;8.830;2023-05-10T00:05:56;0.70;;;0.70;;
8247;SDS011;4164;49.844;8.830;2023-05-10T00:08:22;0.57;;;0.57;;
8247;SDS011;4164;49.844;8.830;2023-05-10T00:10:48;0.93;;;0.80;;
8247;SDS011;4164;49.844;8.830;2023-05-10T00:13:13;0.40;;;0.40;;
8247;SDS011;4164;49.844;8.830;2023-05-10T00:15:39;1.43;;;0.80;;
8247;SDS011;4164;49.844;8.830;2023-05-10T00:18:04;3.83;;;1.00;;
8247;SDS011;4164;49.844;8.830;2023-05-10T00:20:30;0.80;;;0.80;;
8247;SDS011;4164;49.844;8.830;2023-05-10T00:22:56;0.70;;;0.70;;
8247;SDS011;4164;49.844;8.830;2023-05-10T00:25:21;2.57;;;0.90;;
8247;SDS011;4164;49.844;8.830;2023-05-10T00:27:47;1.07;;;0.70;;
8247;SDS011;4164;49.844;8.830;2023-05-10T00:30:13;0.83;;;0.83;;
8247;SDS011;4164;49.844;8.830;2023-05-10T00:32:38;1.80;;;0.70;;
8247;SDS011;4164;49.844;8.830;2023-05-10T00:35:04;0.90;;;0.90;;
8247;SDS011;4164;49.844;8.830;2023-05-10T00:37:30;1.23;;;1.00;;
8247;SDS011;4164;49.844;8.830;2023-05-10T00:39:55;2.20;;;1.10;;
8247;SDS011;4164;49.844;8.830;2023-05-10T00:42:21;1.50;;;1.40;;
8247;SDS011;4164;49.844;8.830;2023-05-10T00:44:47;1.60;;;1.50;;
8247;SDS011;4164;49.844;8.830;2023-05-10T00:47:12;2.43;;;1.70;;
8247;SDS011;4164;49.844;8.830;2023-05-10T00:49:38;1.57;;;1.47;;
8247;SDS011;4164;49.844;8.830;2023-05-10T00:52:05;3.30;;;1.90;;
8247;SDS011;4164;49.844;8.830;2023-05-10T00:54:31;2.60;;;1.80;;
8247;SDS011;4164;49.844;8.830;2023-05-10T00:56:56;3.57;;;1.60;;
8247;SDS011;4164;49.844;8.830;2023-05-10T00:59:22;1.57;;;1.47;;
8247;SDS011;4164;49.844;8.830;2023-05-10T01:01:48;2.30;;;1.50;;
8247;SDS011;4164;49.844;8.830;2023-05-10T01:04:14;1.40;;;1.30;;
8247;SDS011;4164;49.844;8.830;2023-05-10T01:06:43;1.50;;;1.40;;
8247;SDS011;4164;49.844;8.830;2023-05-10T01:09:08;2.30;;;1.40;;
8247;SDS011;4164;49.844;8.830;2023-05-10T01:11:35;1.60;;;1.50;;
8247;SDS011;4164;49.844;8.830;2023-05-10T01:14:02;1.40;;;1.30;;
8247;SDS011;4164;49.844;8.830;2023-05-10T01:16:29;1.40;;;1.30;;
8247;SDS011;4164;49.844;8.830;2023-05-10T01:18:59;2.03;;;1.80;;
8247;SDS011;4164;49.844;8.830;2023-05-10T01:22:15;3.37;;;1.70;;
8247;SDS011;4164;49.844;8.830;2023-05-10T01:27:12;1.47;;;1.37;;
8247;SDS011;4164;49.844;8.830;2023-05-10T01:30:08;3.37;;;1.60;;
8247;SDS011;4164;49.844;8.830;2023-05-10T01:33:15;1.83;;;1.67;;
8247;SDS011;4164;49.844;8.830;2023-05-10T01:36:14;1.90;;;1.80;;
8247;SDS011;4164;49.844;8.830;2023-05-10T01:41:45;1.70;;;1.60;;
8247;SDS011;4164;49.844;8.830;2023-05-10T01:46:56;1.60;;;1.50;;
8247;SDS011;4164;49.844;8.830;2023-05-10T01:49:30;2.70;;;1.60;;
8247;SDS011;4164;49.844;8.830;2023-05-10T01:52:00;1.70;;;1.60;;
8247;SDS011;4164;49.844;8.830;2023-05-10T01:54:32;3.23;;;1.70;;
8247;SDS011;4164;49.844;8.830;2023-05-10T01:57:03;2.33;;;1.63;;
8247;SDS011;4164;49.844;8.830;2023-05-10T01:59:34;1.57;;;1.47;;
8247;SDS011;4164;49.844;8.830;2023-05-10T02:02:04;1.63;;;1.53;;
8247;SDS011;4164;49.844;8.830;2023-05-10T02:04:30;2.90;;;1.40;;
8247;SDS011;4164;49.844;8.830;2023-05-10T02:06:57;1.80;;;1.70;;
8247;SDS011;4164;49.844;8.830;2023-05-10T02:09:23;1.53;;;1.43;;
8247;SDS011;4164;49.844;8.830;2023-05-10T02:11:52;1.80;;;1.70;;
8247;SDS011;4164;49.844;8.830;2023-05-10T02:14:19;1.57;;;1.30;;
8247;SDS011;4164;49.844;8.830;2023-05-10T02:16:46;1.90;;;1.57;;
8247;SDS011;4164;49.844;8.830;2023-05-10T02:19:13;2.80;;;1.50;;
8247;SDS011;4164;49.844;8.830;2023-05-10T02:21:41;2.03;;;1.40;;
8247;SDS011;4164;49.844;8.830;2023-05-10T02:24:08;1.93;;;1.47;;
8247;SDS011;4164;49.844;8.830;2023-05-10T02:26:35;2.83;;;1.30;;
8247;SDS011;4164;49.844;8.830;2023-05-10T02:29:02;2.60;;;1.47;;
8247;SDS011;4164;49.844;8.830;2023-05-10T02:31:30;2.13;;;1.30;;
8247;SDS011;4164;49.844;8.830;2023-05-10T02:33:57;2.50;;;1.50;;
8247;SDS011;4164;49.844;8.830;2023-05-10T02:36:25;5.43;;;1.37;;
8247;SDS011;4164;49.844;8.830;2023-05-10T02:38:52;1.10;;;1.10;;
8247;SDS011;4164;49.844;8.830;2023-05-10T02:41:21;0.87;;;0.87;;
8247;SDS011;4164;49.844;8.830;2023-05-10T02:43:49;1.70;;;1.50;;
8247;SDS011;4164;49.844;8.830;2023-05-10T02:46:17;1.37;;;1.07;;
8247;SDS011;4164;49.844;8.830;2023-05-10T02:48:43;3.10;;;1.20;;
8247;SDS011;4164;49.844;8.830;2023-05-10T02:51:08;3.80;;;1.27;;
8247;SDS011;4164;49.844;8.830;2023-05-10T02:53:41;1.10;;;1.10;;
8247;SDS011;4164;49.844;8.830;2023-05-10T02:56:12;1.10;;;1.10;;
8247;SDS011;4164;49.844;8.830;2023-05-10T02:58:43;1.93;;;1.30;;
8247;SDS011;4164;49.844;8.830;2023-05-10T03:01:08;1.20;;;1.20;;
8247;SDS011;4164;49.844;8.830;2023-05-10T03:03:34;2.20;;;1.30;;
8247;SDS011;4164;49.844;8.830;2023-05-10T03:06:00;1.20;;;1.10;;
8247;SDS011;4164;49.844;8.830;2023-05-10T03:08:25;1.93;;;0.90;;
8247;SDS011;4164;49.844;8.830;2023-05-10T03:14:02;1.83;;;1.17;;
8247;SDS011;4164;49.844;8.830;2023-05-10T03:22:08;1.03;;;1.03;;
8247;SDS011;4164;49.844;8.830;2023-05-10T03:24:35;1.40;;;1.30;;
8247;SDS011;4164;49.844;8.830;2023-05-10T03:27:04;1.40;;;1.30;;
8247;SDS011;4164;49.844;8.830;2023-05-10T03:29:30;1.23;;;1.17;;
8247;SDS011;4164;49.844;8.830;2023-05-10T03:31:57;1.07;;;0.97;;
8247;SDS011;4164;49.844;8.830;2023-05-10T03:34:24;1.50;;;1.40;;
8247;SDS011;4164;49.844;8.830;2023-05-10T03:36:50;3.27;;;1.40;;
8247;SDS011;4164;49.844;8.830;2023-05-10T03:39:16;1.37;;;1.30;;
8247;SDS011;4164;49.844;8.830;2023-05-10T03:41:41;9.13;;;1.63;;
8247;SDS011;4164;49.844;8.830;2023-05-10T03:44:07;2.90;;;1.43;;
8247;SDS011;4164;49.844;8.830;2023-05-10T03:46:33;4.50;;;1.90;;
8247;SDS011;4164;49.844;8.830;2023-05-10T03:48:58;2.30;;;1.50;;
8247;SDS011;4164;49.844;8.830;2023-05-10T03:51:24;4.73;;;1.67;;
8247;SDS011;4164;49.844;8.830;2023-05-10T03:53:53;1.83;;;1.50;;
8247;SDS011;4164;49.844;8.830;2023-05-10T03:56:19;1.83;;;1.70;;
8247;SDS011;4164;49.844;8.830;2023-05-10T03:58:45;2.87;;;1.90;;
8247;SDS011;4164;49.844;8.830;2023-05-10T04:01:11;4.90;;;2.20;;
8247;SDS011;4164;49.844;8.830;2023-05-10T04:03:36;2.27;;;2.03;;
8247;SDS011;4164;49.844;8.830;2023-05-10T04:06:03;3.33;;;1.87;;
8247;SDS011;4164;49.844;8.830;2023-05-10T04:08:29;2.20;;;2.00;;
8247;SDS011;4164;49.844;8.830;2023-05-10T04:11:04;3.83;;;2.03;;
8247;SDS011;4164;49.844;8.830;2023-05-10T04:13:31;2.77;;;2.57;;
8247;SDS011;4164;49.844;8.830;2023-05-10T04:15:57;2.30;;;2.10;;
8247;SDS011;4164;49.844;8.830;2023-05-10T04:18:22;3.37;;;2.50;;
8247;SDS011;4164;49.844;8.830;2023-05-10T04:20:48;2.57;;;2.30;;
8247;SDS011;4164;49.844;8.830;2023-05-10T04:23:13;2.70;;;2.50;;
8247;SDS011;4164;49.844;8.830;2023-05-10T04:25:41;4.53;;;2.70;;
8247;SDS011;4164;49.844;8.830;2023-05-10T04:28:07;2.73;;;2.53;;
8247;SDS011;4164;49.844;8.830;2023-05-10T04:30:32;2.80;;;2.57;;
8247;SDS011;4164;49.844;8.830;2023-05-10T04:32:58;5.33;;;2.83;;
8247;SDS011;4164;49.844;8.830;2023-05-10T04:35:23;3.20;;;2.90;;
8247;SDS011;4164;49.844;8.830;2023-05-10T04:37:49;10.03;;;3.10;;
8247;SDS011;4164;49.844;8.830;2023-05-10T04:40:15;5.53;;;3.33;;
8247;SDS011;4164;49.844;8.830;2023-05-10T04:42:40;2.80;;;2.60;;
8247;SDS011;4164;49.844;8.830;2023-05-10T04:45:06;3.07;;;2.77;;
8247;SDS011;4164;49.844;8.830;2023-05-10T04:47:32;3.30;;;3.00;;
8247;SDS011;4164;49.844;8.830;2023-05-10T04:49:58;5.20;;;3.37;;
8247;SDS011;4164;49.844;8.830;2023-05-10T04:52:23;4.37;;;3.10;;
8247;SDS011;4164;49.844;8.830;2023-05-10T04:54:49;3.20;;;2.90;;
8247;SDS011;4164;49.844;8.830;2023-05-10T04:57:15;4.27;;;2.30;;
8247;SDS011;4164;49.844;8.830;2023-05-10T04:59:41;2.53;;;2.33;;
8247;SDS011;4164;49.844;8.830;2023-05-10T05:02:07;2.50;;;2.30;;
8247;SDS011;4164;49.844;8.830;2023-05-10T05:04:33;4.27;;;2.40;;
8247;SDS011;4164;49.844;8.830;2023-05-10T05:06:58;5.10;;;2.70;;
8247;SDS011;4164;49.844;8.830;2023-05-10T05:09:24;4.73;;;2.50;;
8247;SDS011;4164;49.844;8.830;2023-05-10T05:11:49;3.13;;;2.80;;
8247;SDS011;4164;49.844;8.830;2023-05-10T05:14:15;2.63;;;2.30;;
8247;SDS011;4164;49.844;8.830;2023-05-10T05:16:40;2.90;;;2.40;;
8247;SDS011;4164;49.844;8.830;2023-05-10T05:19:06;2.57;;;2.37;;
8247;SDS011;4164;49.844;8.830;2023-05-10T05:21:31;3.67;;;2.50;;
8247;SDS011;4164;49.844;8.830;2023-05-10T05:23:57;2.67;;;2.00;;
8247;SDS011;4164;49.844;8.830;2023-05-10T05:26:23;4.07;;;2.20;;
8247;SDS011;4164;49.844;8.830;2023-05-10T05:28:48;3.40;;;2.20;;
8247;SDS011;4164;49.844;8.830;2023-05-10T05:31:17;3.73;;;2.70;;
8247;SDS011;4164;49.844;8.830;2023-05-10T05:33:43;3.80;;;2.23;;
8247;SDS011;4164;49.844;8.830;2023-05-10T05:36:08;3.93;;;2.60;;
8247;SDS011;4164;49.844;8.830;2023-05-10T05:38:34;2.93;;;2.37;;
8247;SDS011;4164;49.844;8.830;2023-05-10T05:41:00;4.20;;;2.20;;
8247;SDS011;4164;49.844;8.830;2023-05-10T05:43:25;3.73;;;2.40;;
8247;SDS011;4164;49.844;8.830;2023-05-10T05:45:54;3.23;;;2.30;;
8247;SDS011;4164;49.844;8.830;2023-05-10T05:48:20;3.97;;;2.00;;
8247;SDS011;4164;49.844;8.830;2023-05-10T05:50:45;2.27;;;1.90;;
8247;SDS011;4164;49.844;8.830;2023-05-10T05:53:11;3.87;;;2.40;;
8247;SDS011;4164;49.844;8.830;2023-05-10T05:55:37;6.13;;;2.40;;
8247;SDS011;4164;49.844;8.830;2023-05-10T05:58:02;6.20;;;2.50;;
8247;SDS011;4164;49.844;8.830;2023-05-10T06:00:28;3.40;;;1.90;;
8247;SDS011;4164;49.844;8.830;2023-05-10T06:02:53;4.07;;;2.83;;
8247;SDS011;4164;49.844;8.830;2023-05-10T06:05:19;6.30;;;2.20;;
8247;SDS011;4164;49.844;8.830;2023-05-10T06:07:45;2.47;;;2.27;;
8247;SDS011;4164;49.844;8.830;2023-05-10T06:10:11;4.07;;;2.70;;
8247;SDS011;4164;49.844;8.830;2023-05-10T06:12:36;4.93;;;2.23;;
8247;SDS011;4164;49.844;8.830;2023-05-10T06:15:02;2.60;;;2.30;;
8247;SDS011;4164;49.844;8.830;2023-05-10T06:17:28;3.97;;;2.30;;
8247;SDS011;4164;49.844;8.830;2023-05-10T06:19:54;3.13;;;2.60;;
8247;SDS011;4164;49.844;8.830;2023-05-10T06:22:20;4.77;;;2.70;;
8247;SDS011;4164;49.844;8.830;2023-05-10T06:24:49;5.03;;;2.33;;
8247;SDS011;4164;49.844;8.830;2023-05-10T06:27:15;4.37;;;2.20;;
8247;SDS011;4164;49.844;8.830;2023-05-10T06:29:40;5.43;;;2.27;;
8247;SDS011;4164;49.844;8.830;2023-05-10T06:32:09;7.67;;;2.30;;
8247;SDS011;4164;49.844;8.830;2023-05-10T06:34:34;4.70;;;2.20;;
8247;SDS011;4164;49.844;8.830;2023-05-10T06:37:00;3.37;;;2.20;;
8247;SDS011;4164;49.844;8.830;2023-05-10T06:39:25;3.43;;;2.20;;
8247;SDS011;4164;49.844;8.830;2023-05-10T06:41:51;3.03;;;2.00;;
8247;SDS011;4164;49.844;8.830;2023-05-10T06:44:17;2.77;;;1.90;;
8247;SDS011;4164;49.844;8.830;2023-05-10T06:46:42;3.13;;;2.10;;
8247;SDS011;4164;49.844;8.830;2023-05-10T06:49:08;4.47;;;2.30;;
8247;SDS011;4164;49.844;8.830;2023-05-10T06:51:33;3.20;;;2.47;;
8247;SDS011;4164;49.844;8.830;2023-05-10T06:53:59;8.00;;;2.53;;
8247;SDS011;4164;49.844;8.830;2023-05-10T06:56:25;4.60;;;3.20;;
8247;SDS011;4164;49.844;8.830;2023-05-10T06:58:51;4.60;;;2.47;;
8247;SDS011;4164;49.844;8.830;2023-05-10T07:01:16;3.97;;;2.73;;
8247;SDS011;4164;49.844;8.830;2023-05-10T07:03:42;6.23;;;3.53;;
8247;SDS011;4164;49.844;8.830;2023-05-10T07:06:07;12.97;;;2.80;;
8247;SDS011;4164;49.844;8.830;2023-05-10T07:08:33;4.63;;;3.00;;
8247;SDS011;4164;49.844;8.830;2023-05-10T07:11:02;3.57;;;3.10;;
8247;SDS011;4164;49.844;8.830;2023-05-10T07:13:30;4.73;;;2.97;;
8247;SDS011;4164;49.844;8.830;2023-05-10T07:15:56;4.53;;;2.87;;
8247;SDS011;4164;49.844;8.830;2023-05-10T07:18:23;4.07;;;2.90;;
8247;SDS011;4164;49.844;8.830;2023-05-10T07:20:49;4.83;;;3.10;;
8247;SDS011;4164;49.844;8.830;2023-05-10T07:23:15;4.43;;;2.80;;
8247;SDS011;4164;49.844;8.830;2023-05-10T07:25:44;4.57;;;3.07;;
8247;SDS011;4164;49.844;8.830;2023-05-10T07:28:10;4.27;;;3.23;;
8247;SDS011;4164;49.844;8.830;2023-05-10T07:30:36;3.20;;;2.90;;
8247;SDS011;4164;49.844;8.830;2023-05-10T07:33:01;4.80;;;2.93;;
8247;SDS011;4164;49.844;8.830;2023-05-10T07:35:27;4.97;;;3.20;;
8247;SDS011;4164;49.844;8.830;2023-05-10T07:37:55;4.20;;;2.93;;
8247;SDS011;4164;49.844;8.830;2023-05-10T07:40:21;4.07;;;2.80;;
8247;SDS011;4164;49.844;8.830;2023-05-10T07:42:47;3.27;;;2.93;;
8247;SDS011;4164;49.844;8.830;2023-05-10T07:45:12;5.83;;;3.20;;
8247;SDS011;4164;49.844;8.830;2023-05-10T07:47:38;3.87;;;3.17;;
8247;SDS011;4164;49.844;8.830;2023-05-10T07:50:03;4.73;;;2.50;;
8247;SDS011;4164;49.844;8.830;2023-05-10T07:52:29;2.90;;;2.60;;
8247;SDS011;4164;49.844;8.830;2023-05-10T07:54:55;3.20;;;2.87;;
8247;SDS011;4164;49.844;8.830;2023-05-10T07:57:21;2.83;;;2.50;;
8247;SDS011;4164;49.844;8.830;2023-05-10T07:59:47;2.80;;;2.60;;
8247;SDS011;4164;49.844;8.830;2023-05-10T08:02:12;2.73;;;2.50;;
8247;SDS011;4164;49.844;8.830;2023-05-10T08:04:38;2.43;;;2.20;;
8247;SDS011;4164;49.844;8.830;2023-05-10T08:07:03;3.23;;;2.40;;
8247;SDS011;4164;49.844;8.830;2023-05-10T08:09:29;2.23;;;2.03;;
8247;SDS011;4164;49.844;8.830;2023-05-10T08:11:55;2.93;;;2.33;;
8247;SDS011;4164;49.844;8.830;2023-05-10T08:14:20;2.50;;;2.13;;
8247;SDS011;4164;49.844;8.830;2023-05-10T08:16:46;3.67;;;2.17;;
8247;SDS011;4164;49.844;8.830;2023-05-10T08:19:11;4.30;;;2.30;;
8247;SDS011;4164;49.844;8.830;2023-05-10T08:21:37;1.90;;;1.80;;
8247;SDS011;4164;49.844;8.830;2023-05-10T08:24:03;2.50;;;2.07;;
8247;SDS011;4164;49.844;8.830;2023-05-10T08:26:29;2.63;;;1.77;;
8247;SDS011;4164;49.844;8.830;2023-05-10T08:28:55;2.37;;;1.77;;
8247;SDS011;4164;49.844;8.830;2023-05-10T08:31:21;2.77;;;1.70;;
8247;SDS011;4164;49.844;8.830;2023-05-10T08:33:46;2.07;;;1.67;;
8247;SDS011;4164;49.844;8.830;2023-05-10T08:36:12;5.27;;;2.00;;
8247;SDS011;4164;49.844;8.830;2023-05-10T08:38:39;3.77;;;2.00;;
8247;SDS011;4164;49.844;8.830;2023-05-10T08:41:04;3.97;;;2.03;;
8247;SDS011;4164;49.844;8.830;2023-05-10T08:43:30;2.57;;;2.37;;
8247;SDS011;4164;49.844;8.830;2023-05-10T08:45:56;2.07;;;1.97;;
8247;SDS011;4164;49.844;8.830;2023-05-10T08:48:26;2.07;;;1.97;;
8247;SDS011;4164;49.844;8.830;2023-05-10T08:50:54;2.90;;;2.23;;
8247;SDS011;4164;49.844;8.830;2023-05-10T08:53:24;2.50;;;2.30;;
8247;SDS011;4164;49.844;8.830;2023-05-10T08:55:51;3.17;;;2.33;;
8247;SDS011;4164;49.844;8.830;2023-05-10T08:58:17;3.17;;;2.80;;
8247;SDS011;4164;49.844;8.830;2023-05-10T09:00:44;5.90;;;2.40;;
8247;SDS011;4164;49.844;8.830;2023-05-10T09:03:11;2.77;;;2.57;;
8247;SDS011;4164;49.844;8.830;2023-05-10T09:05:37;4.63;;;2.47;;
8247;SDS011;4164;49.844;8.830;2023-05-10T09:08:03;2.30;;;1.90;;
8247;SDS011;4164;49.844;8.830;2023-05-10T09:10:29;4.23;;;2.17;;
8247;SDS011;4164;49.844;8.830;2023-05-10T09:12:56;3.60;;;2.47;;
8247;SDS011;4164;49.844;8.830;2023-05-10T09:15:22;2.43;;;2.10;;
8247;SDS011;4164;49.844;8.830;2023-05-10T09:17:48;5.37;;;2.00;;
8247;SDS011;4164;49.844;8.830;2023-05-10T09:20:14;2.17;;;1.97;;
8247;SDS011;4164;49.844;8.830;2023-05-10T09:22:42;2.77;;;1.97;;
8247;SDS011;4164;49.844;8.830;2023-05-10T09:25:09;3.10;;;2.13;;
8247;SDS011;4164;49.844;8.830;2023-05-10T09:27:36;2.20;;;1.87;;
8247;SDS011;4164;49.844;8.830;2023-05-10T09:30:04;3.97;;;2.10;;
8247;SDS011;4164;49.844;8.830;2023-05-10T09:35:14;3.97;;;2.30;;
8247;SDS011;4164;49.844;8.830;2023-05-10T09:37:45;3.57;;;1.70;;
8247;SDS011;4164;49.844;8.830;2023-05-10T09:40:16;4.43;;;2.13;;
8247;SDS011;4164;49.844;8.830;2023-05-10T09:42:51;2.73;;;2.07;;
8247;SDS011;4164;49.844;8.830;2023-05-10T09:45:20;1.93;;;1.40;;
8247;SDS011;4164;49.844;8.830;2023-05-10T09:47:46;2.03;;;1.50;;
8247;SDS011;4164;49.844;8.830;2023-05-10T09:50:12;1.80;;;1.50;;
8247;SDS011;4164;49.844;8.830;2023-05-10T09:55:37;3.30;;;1.50;;
8247;SDS011;4164;49.844;8.830;2023-05-10T09:58:05;1.20;;;1.20;;
8247;SDS011;4164;49.844;8.830;2023-05-10T10:00:41;1.17;;;1.13;;
8247;SDS011;4164;49.844;8.830;2023-05-10T10:03:12;2.87;;;1.40;;
8247;SDS011;4164;49.844;8.830;2023-05-10T10:05:40;7.53;;;1.47;;
8247;SDS011;4164;49.844;8.830;2023-05-10T10:08:07;1.90;;;1.40;;
8247;SDS011;4164;49.844;8.830;2023-05-10T10:10:33;5.50;;;1.50;;
8247;SDS011;4164;49.844;8.830;2023-05-10T10:12:59;2.40;;;1.27;;
8247;SDS011;4164;49.844;8.830;2023-05-10T10:15:25;1.90;;;1.30;;
8247;SDS011;4164;49.844;8.830;2023-05-10T10:17:51;2.30;;;1.73;;
8247;SDS011;4164;49.844;8.830;2023-05-10T10:20:18;1.87;;;1.70;;
8247;SDS011;4164;49.844;8.830;2023-05-10T10:22:45;5.87;;;1.90;;
8247;SDS011;4164;49.844;8.830;2023-05-10T10:25:11;2.07;;;1.57;;
8247;SDS011;4164;49.844;8.830;2023-05-10T10:36:03;6.73;;;2.87;;
8247;SDS011;4164;49.844;8.830;2023-05-10T10:39:07;3.73;;;2.13;;
8247;SDS011;4164;49.844;8.830;2023-05-10T10:41:30;5.90;;;3.23;;
8247;SDS011;4164;49.844;8.830;2023-05-10T10:47:07;6.37;;;3.43;;
8247;SDS011;4164;49.844;8.830;2023-05-10T10:52:27;4.30;;;2.83;;
8247;SDS011;4164;49.844;8.830;2023-05-10T10:57:55;2.03;;;1.60;;
8247;SDS011;4164;49.844;8.830;2023-05-10T11:00:32;1.70;;;1.60;;
8247;SDS011;4164;49.844;8.830;2023-05-10T11:03:06;3.47;;;1.50;;
8247;SDS011;4164;49.844;8.830;2023-05-10T11:05:46;1.27;;;1.17;;
8247;SDS011;4164;49.844;8.830;2023-05-10T11:10:53;1.23;;;1.13;;
8247;SDS011;4164;49.844;8.830;2023-05-10T11:13:29;1.77;;;1.10;;
8247;SDS011;4164;49.844;8.830;2023-05-10T11:16:12;1.70;;;1.33;;
8247;SDS011;4164;49.844;8.830;2023-05-10T11:18:39;1.80;;;1.70;;
8247;SDS011;4164;49.844;8.830;2023-05-10T11:21:07;1.83;;;1.40;;
8247;SDS011;4164;49.844;8.830;2023-05-10T11:26:10;1.73;;;1.40;;
8247;SDS011;4164;49.844;8.830;2023-05-10T11:28:43;2.63;;;1.60;;
8247;SDS011;4164;49.844;8.830;2023-05-10T11:31:08;3.97;;;1.97;;
8247;SDS011;4164;49.844;8.830;2023-05-10T11:33:44;1.83;;;1.70;;
8247;SDS011;4164;49.844;8.830;2023-05-10T11:36:15;1.30;;;1.20;;
8247;SDS011;4164;49.844;8.830;2023-05-10T11:39:01;1.30;;;1.20;;
8247;SDS011;4164;49.844;8.830;2023-05-10T11:41:28;1.10;;;1.00;;
8247;SDS011;4164;49.844;8.830;2023-05-10T11:43:55;2.83;;;1.20;;
8247;SDS011;4164;49.844;8.830;2023-05-10T11:46:23;2.63;;;1.00;;
8247;SDS011;4164;49.844;8.830;2023-05-10T11:48:52;2.90;;;1.20;;
8247;SDS011;4164;49.844;8.830;2023-05-10T11:51:22;2.87;;;1.47;;
8247;SDS011;4164;49.844;8.830;2023-05-10T11:53:49;2.53;;;1.40;;
8247;SDS011;4164;49.844;8.830;2023-05-10T11:56:16;2.03;;;1.10;;
8247;SDS011;4164;49.844;8.830;2023-05-10T11:58:41;6.03;;;1.37;;
8247;SDS011;4164;49.844;8.830;2023-05-10T12:01:07;1.27;;;1.17;;
8247;SDS011;4164;49.844;8.830;2023-05-10T12:03:35;2.80;;;1.20;;
8247;SDS011;4164;49.844;8.830;2023-05-10T12:06:01;4.33;;;1.13;;
8247;SDS011;4164;49.844;8.830;2023-05-10T12:08:28;1.53;;;1.17;;
8247;SDS011;4164;49.844;8.830;2023-05-10T12:11:08;1.90;;;1.00;;
8247;SDS011;4164;49.844;8.830;2023-05-10T12:13:37;1.70;;;1.33;;
8247;SDS011;4164;49.844;8.830;2023-05-10T12:18:50;0.87;;;0.87;;
8247;SDS011;4164;49.844;8.830;2023-05-10T12:21:21;1.47;;;0.87;;
8247;SDS011;4164;49.844;8.830;2023-05-10T12:23:48;1.90;;;1.10;;
8247;SDS011;4164;49.844;8.830;2023-05-10T12:26:17;1.70;;;1.00;;
8247;SDS011;4164;49.844;8.830;2023-05-10T12:28:43;0.93;;;0.90;;
8247;SDS011;4164;49.844;8.830;2023-05-10T12:31:09;3.60;;;1.47;;
8247;SDS011;4164;49.844;8.830;2023-05-10T12:33:39;1.73;;;1.10;;
8247;SDS011;4164;49.844;8.830;2023-05-10T12:36:15;2.67;;;1.10;;
8247;SDS011;4164;49.844;8.830;2023-05-10T12:38:42;1.43;;;1.30;;
8247;SDS011;4164;49.844;8.830;2023-05-10T12:41:09;1.73;;;1.27;;
8247;SDS011;4164;49.844;8.830;2023-05-10T12:43:36;1.47;;;1.10;;
8247;SDS011;4164;49.844;8.830;2023-05-10T12:46:06;1.00;;;1.00;;
8247;SDS011;4164;49.844;8.830;2023-05-10T12:48:36;1.20;;;1.10;;
8247;SDS011;4164;49.844;8.830;2023-05-10T12:51:03;1.73;;;1.23;;
8247;SDS011;4164;49.844;8.830;2023-05-10T12:53:30;1.37;;;1.10;;
8247;SDS011;4164;49.844;8.830;2023-05-10T12:55:55;1.30;;;1.10;;
8247;SDS011;4164;49.844;8.830;2023-05-10T12:58:21;1.93;;;1.07;;
8247;SDS011;4164;49.844;8.830;2023-05-10T13:00:47;1.93;;;1.03;;
8247;SDS011;4164;49.844;8.830;2023-05-10T13:03:13;2.13;;;1.30;;
8247;SDS011;4164;49.844;8.830;2023-05-10T13:05:39;3.17;;;1.30;;
8247;SDS011;4164;49.844;8.830;2023-05-10T13:08:05;3.03;;;1.20;;
8247;SDS011;4164;49.844;8.830;2023-05-10T13:10:30;1.00;;;1.00;;
8247;SDS011;4164;49.844;8.830;2023-05-10T13:12:57;1.47;;;1.20;;
8247;SDS011;4164;49.844;8.830;2023-05-10T13:15:25;1.67;;;1.10;;
8247;SDS011;4164;49.844;8.830;2023-05-10T13:17:51;7.80;;;1.50;;
8247;SDS011;4164;49.844;8.830;2023-05-10T13:20:18;1.53;;;1.30;;
8247;SDS011;4164;49.844;8.830;2023-05-10T13:22:43;1.73;;;1.20;;
8247;SDS011;4164;49.844;8.830;2023-05-10T13:25:10;1.57;;;1.40;;
8247;SDS011;4164;49.844;8.830;2023-05-10T13:27:36;4.10;;;1.20;;
8247;SDS011;4164;49.844;8.830;2023-05-10T13:30:02;2.53;;;1.30;;
8247;SDS011;4164;49.844;8.830;2023-05-10T13:32:29;2.57;;;1.30;;
8247;SDS011;4164;49.844;8.830;2023-05-10T13:34:54;3.07;;;1.20;;
8247;SDS011;4164;49.844;8.830;2023-05-10T13:37:20;3.00;;;1.30;;
8247;SDS011;4164;49.844;8.830;2023-05-10T13:39:46;4.40;;;1.30;;
8247;SDS011;4164;49.844;8.830;2023-05-10T13:42:12;2.20;;;1.20;;
8247;SDS011;4164;49.844;8.830;2023-05-10T13:44:37;2.63;;;1.30;;
8247;SDS011;4164;49.844;8.830;2023-05-10T13:47:03;1.77;;;1.20;;
8247;SDS011;4164;49.844;8.830;2023-05-10T13:49:29;6.13;;;1.73;;
8247;SDS011;4164;49.844;8.830;2023-05-10T13:51:55;3.87;;;1.73;;
8247;SDS011;4164;49.844;8.830;2023-05-10T13:54:20;2.23;;;1.60;;
8247;SDS011;4164;49.844;8.830;2023-05-10T13:56:47;3.33;;;1.60;;
8247;SDS011;4164;49.844;8.830;2023-05-10T13:59:13;2.93;;;1.30;;
8247;SDS011;4164;49.844;8.830;2023-05-10T14:01:39;3.70;;;1.40;;
8247;SDS011;4164;49.844;8.830;2023-05-10T14:04:06;1.43;;;1.20;;
8247;SDS011;4164;49.844;8.830;2023-05-10T14:06:33;3.10;;;1.57;;
8247;SDS011;4164;49.844;8.830;2023-05-10T14:08:59;3.37;;;1.40;;
8247;SDS011;4164;49.844;8.830;2023-05-10T14:11:24;1.93;;;1.30;;
8247;SDS011;4164;49.844;8.830;2023-05-10T14:13:50;6.87;;;1.03;;
8247;SDS011;4164;49.844;8.830;2023-05-10T14:16:15;1.90;;;1.20;;
8247;SDS011;4164;49.844;8.830;2023-05-10T14:18:41;1.40;;;1.30;;
8247;SDS011;4164;49.844;8.830;2023-05-10T14:21:06;2.63;;;1.30;;
8247;SDS011;4164;49.844;8.830;2023-05-10T14:23:32;3.03;;;1.40;;
8247;SDS011;4164;49.844;8.830;2023-05-10T14:25:57;1.50;;;1.03;;
8247;SDS011;4164;49.844;8.830;2023-05-10T14:28:23;1.77;;;1.10;;
8247;SDS011;4164;49.844;8.830;2023-05-10T14:30:49;1.60;;;1.17;;
8247;SDS011;4164;49.844;8.830;2023-05-10T14:33:16;2.70;;;1.40;;
8247;SDS011;4164;49.844;8.830;2023-05-10T14:35:42;1.83;;;1.00;;
8247;SDS011;4164;49.844;8.830;2023-05-10T14:38:07;3.73;;;1.23;;
8247;SDS011;4164;49.844;8.830;2023-05-10T14:40:33;9.33;;;1.37;;
8247;SDS011;4164;49.844;8.830;2023-05-10T14:43:02;1.50;;;1.13;;
8247;SDS011;4164;49.844;8.830;2023-05-10T14:45:27;4.93;;;1.33;;
8247;SDS011;4164;49.844;8.830;2023-05-10T14:47:53;1.87;;;1.10;;
8247;SDS011;4164;49.844;8.830;2023-05-10T14:50:18;3.10;;;1.60;;
8247;SDS011;4164;49.844;8.830;2023-05-10T14:52:44;3.23;;;1.03;;
8247;SDS011;4164;49.844;8.830;2023-05-10T14:55:09;3.60;;;1.33;;
8247;SDS011;4164;49.844;8.830;2023-05-10T14:57:35;3.00;;;1.33;;
8247;SDS011;4164;49.844;8.830;2023-05-10T15:00:01;4.80;;;1.70;;
8247;SDS011;4164;49.844;8.830;2023-05-10T15:02:28;1.27;;;1.17;;
8247;SDS011;4164;49.844;8.830;2023-05-10T15:04:54;2.13;;;1.20;;
8247;SDS011;4164;49.844;8.830;2023-05-10T15:07:19;2.70;;;1.23;;
8247;SDS011;4164;49.844;8.830;2023-05-10T15:09:45;3.10;;;1.37;;
8247;SDS011;4164;49.844;8.830;2023-05-10T15:12:11;3.07;;;1.03;;
8247;SDS011;4164;49.844;8.830;2023-05-10T15:14:36;1.43;;;1.10;;
8247;SDS011;4164;49.844;8.830;2023-05-10T15:17:02;2.23;;;1.30;;
8247;SDS011;4164;49.844;8.830;2023-05-10T15:19:27;2.07;;;1.30;;
8247;SDS011;4164;49.844;8.830;2023-05-10T15:21:54;4.27;;;1.30;;
8247;SDS011;4164;49.844;8.830;2023-05-10T15:24:20;2.40;;;1.40;;
8247;SDS011;4164;49.844;8.830;2023-05-10T15:26:46;3.17;;;1.40;;
8247;SDS011;4164;49.844;8.830;2023-05-10T15:29:12;3.13;;;1.20;;
8247;SDS011;4164;49.844;8.830;2023-05-10T15:31:44;2.70;;;1.37;;
8247;SDS011;4164;49.844;8.830;2023-05-10T15:34:14;1.50;;;1.37;;
8247;SDS011;4164;49.844;8.830;2023-05-10T15:36:40;2.63;;;1.33;;
8247;SDS011;4164;49.844;8.830;2023-05-10T15:39:05;1.97;;;1.23;;
8247;SDS011;4164;49.844;8.830;2023-05-10T15:41:31;2.77;;;1.10;;
8247;SDS011;4164;49.844;8.830;2023-05-10T15:43:57;3.40;;;1.50;;
8247;SDS011;4164;49.844;8.830;2023-05-10T15:46:24;4.73;;;1.30;;
8247;SDS011;4164;49.844;8.830;2023-05-10T15:48:50;1.50;;;1.00;;
8247;SDS011;4164;49.844;8.830;2023-05-10T15:51:16;3.13;;;1.27;;
8247;SDS011;4164;49.844;8.830;2023-05-10T15:53:41;3.10;;;1.23;;
8247;SDS011;4164;49.844;8.830;2023-05-10T15:56:07;2.03;;;1.03;;
8247;SDS011;4164;49.844;8.830;2023-05-10T15:58:33;3.77;;;1.10;;
8247;SDS011;4164;49.844;8.830;2023-05-10T16:00:58;1.30;;;1.00;;
8247;SDS011;4164;49.844;8.830;2023-05-10T16:03:24;2.53;;;1.17;;